createdAt,value
2018-05-27T00:00:22.928Z,16.40
2018-05-27T00:02:55.661Z,16.40
2018-05-27T00:05:29.026Z,16.40
2018-05-27T00:08:02.567Z,16.40
2018-05-27T00:10:35.280Z,16.30
2018-05-27T00:13:07.875Z,16.30
2018-05-27T00:15:41.508Z,16.30
2018-05-27T00:18:14.468Z,16.30
2018-05-27T00:20:47.246Z,16.30
2018-05-27T00:23:19.869Z,16.30
2018-05-27T00:25:52.445Z,16.20
2018-05-27T00:28:25.125Z,16.20
2018-05-27T00:30:58.277Z,16.20
2018-05-27T00:33:32.509Z,16.20
2018-05-27T00:36:05.448Z,16.20
2018-05-27T00:38:38.422Z,16.20
2018-05-27T00:41:12.435Z,16.20
2018-05-27T00:43:45.236Z,16.20
2018-05-27T00:46:17.905Z,16.10
2018-05-27T00:48:51.378Z,16.10
2018-05-27T00:51:23.761Z,16.10
2018-05-27T00:53:59.347Z,16.10
2018-05-27T00:56:32.681Z,16.10
2018-05-27T00:59:05.243Z,16.10
2018-05-27T01:01:38.387Z,16.10
2018-05-27T01:04:12.293Z,16.00
2018-05-27T01:06:44.900Z,16.00
2018-05-27T01:09:17.429Z,16.00
2018-05-27T01:11:50.078Z,16.10
2018-05-27T01:14:23.213Z,16.00
2018-05-27T01:16:56.260Z,16.00
2018-05-27T01:19:29.499Z,16.00
2018-05-27T01:22:03.447Z,16.00
2018-05-27T01:24:36.178Z,16.00
2018-05-27T01:27:09.528Z,16.00
2018-05-27T01:29:42.451Z,15.90
2018-05-27T01:32:15.549Z,15.90
2018-05-27T01:34:49.171Z,15.90
2018-05-27T01:37:23.030Z,15.90
2018-05-27T01:39:56.790Z,15.80
2018-05-27T01:42:29.407Z,15.80
2018-05-27T01:45:02.861Z,15.80
2018-05-27T01:47:35.665Z,15.80
2018-05-27T01:50:08.155Z,15.80
2018-05-27T01:52:41.391Z,15.70
2018-05-27T01:55:15.277Z,15.70
2018-05-27T01:57:47.891Z,15.70
2018-05-27T02:00:20.907Z,15.60
2018-05-27T02:02:53.524Z,15.60
2018-05-27T02:05:26.877Z,15.60
2018-05-27T02:08:00.336Z,15.60
2018-05-27T02:10:33.382Z,15.60
2018-05-27T02:13:06.596Z,15.60
2018-05-27T02:15:40.009Z,15.60
2018-05-27T02:18:13.425Z,15.60
2018-05-27T02:20:46.691Z,15.50
2018-05-27T02:23:19.433Z,15.50
2018-05-27T02:25:51.956Z,15.50
2018-05-27T02:28:25.209Z,15.50
2018-05-27T02:30:57.928Z,15.40
2018-05-27T02:33:30.603Z,15.40
2018-05-27T02:36:04.073Z,15.40
2018-05-27T02:38:38.130Z,15.40
2018-05-27T02:41:11.165Z,15.30
2018-05-27T02:43:44.323Z,15.30
2018-05-27T02:46:16.769Z,15.30
2018-05-27T02:48:50.126Z,15.30
2018-05-27T02:51:23.390Z,15.30
2018-05-27T02:53:55.910Z,15.30
2018-05-27T02:56:28.579Z,15.30
2018-05-27T02:59:01.890Z,15.30
2018-05-27T03:01:35.280Z,15.20
2018-05-27T03:04:08.663Z,15.20
2018-05-27T03:06:41.289Z,15.20
2018-05-27T03:09:14.700Z,15.20
2018-05-27T03:11:48.756Z,15.20
2018-05-27T03:14:22.071Z,15.10
2018-05-27T03:16:55.091Z,15.20
2018-05-27T03:19:28.950Z,15.10
2018-05-27T03:22:02.468Z,15.10
2018-05-27T03:24:35.151Z,15.10
2018-05-27T03:27:08.654Z,15.00
2018-05-27T03:29:41.057Z,15.00
2018-05-27T03:32:14.500Z,15.00
2018-05-27T03:34:47.955Z,14.90
2018-05-27T03:37:20.686Z,14.90
2018-05-27T03:39:54.670Z,14.90
2018-05-27T03:42:27.507Z,14.90
2018-05-27T03:45:01.599Z,14.90
2018-05-27T03:47:34.297Z,14.90
2018-05-27T03:50:07.735Z,14.80
2018-05-27T03:52:40.230Z,14.80
2018-05-27T03:55:13.507Z,14.80
2018-05-27T03:57:46.221Z,14.80
2018-05-27T04:00:19.360Z,14.80
2018-05-27T04:02:52.738Z,14.70
2018-05-27T04:05:43.864Z,14.70
2018-05-27T04:08:30.389Z,14.70
2018-05-27T04:11:02.867Z,14.80
2018-05-27T04:13:36.352Z,14.80
2018-05-27T04:16:08.917Z,14.70
2018-05-27T04:18:41.506Z,14.70
2018-05-27T04:21:13.981Z,14.80
2018-05-27T04:23:46.604Z,14.80
2018-05-27T04:26:18.926Z,14.80
2018-05-27T04:28:52.490Z,14.90
2018-05-27T04:31:25.615Z,15.00
2018-05-27T04:33:59.297Z,15.10
2018-05-27T04:36:32.538Z,15.20
2018-05-27T04:39:05.487Z,15.20
2018-05-27T04:41:38.573Z,15.40
2018-05-27T04:44:11.215Z,15.50
2018-05-27T04:46:45.375Z,15.60
2018-05-27T04:49:18.240Z,15.70
2018-05-27T04:51:50.787Z,15.90
2018-05-27T04:54:23.441Z,16.00
2018-05-27T04:56:56.575Z,16.10
2018-05-27T04:59:32.374Z,16.20
2018-05-27T05:02:05.398Z,16.40
2018-05-27T05:04:39.529Z,16.80
2018-05-27T05:07:12.197Z,16.80
2018-05-27T05:09:45.023Z,17.00
2018-05-27T05:12:18.325Z,17.20
2018-05-27T05:14:50.841Z,17.50
2018-05-27T05:17:24.196Z,17.70
2018-05-27T05:19:57.539Z,18.00
2018-05-27T05:22:29.970Z,18.30
2018-05-27T05:25:02.387Z,18.60
2018-05-27T05:27:34.876Z,18.90
2018-05-27T05:30:07.420Z,19.40
2018-05-27T05:32:39.762Z,20.20
2018-05-27T05:35:12.437Z,21.40
2018-05-27T05:37:45.597Z,22.50
2018-05-27T05:40:18.307Z,23.40
2018-05-27T05:42:51.490Z,24.30
2018-05-27T05:45:24.781Z,25.50
2018-05-27T05:47:58.628Z,25.50
2018-05-27T05:50:31.745Z,25.90
2018-05-27T05:53:04.958Z,26.70
2018-05-27T05:55:37.672Z,26.70
2018-05-27T05:58:11.074Z,26.80
2018-05-27T06:00:44.660Z,27.30
2018-05-27T06:03:17.295Z,27.20
2018-05-27T06:05:49.734Z,27.60
2018-05-27T06:08:23.978Z,27.60
2018-05-27T06:10:56.721Z,27.60
2018-05-27T06:13:30.168Z,27.80
2018-05-27T06:16:02.858Z,28.00
2018-05-27T06:18:36.128Z,28.10
2018-05-27T06:21:08.765Z,28.30
2018-05-27T06:23:42.959Z,28.60
2018-05-27T06:26:15.543Z,28.50
2018-05-27T06:28:49.002Z,28.70
2018-05-27T06:31:22.252Z,28.90
2018-05-27T06:33:55.626Z,28.90
2018-05-27T06:36:28.435Z,28.90
2018-05-27T06:39:01.644Z,28.90
2018-05-27T06:41:34.331Z,29.00
2018-05-27T06:44:08.199Z,29.10
2018-05-27T06:46:41.102Z,29.10
2018-05-27T06:49:14.710Z,29.20
2018-05-27T06:51:48.091Z,29.30
2018-05-27T06:54:21.311Z,29.30
2018-05-27T06:56:54.007Z,29.40
2018-05-27T06:59:27.269Z,29.50
2018-05-27T07:02:00.162Z,29.50
2018-05-27T07:04:33.475Z,29.60
2018-05-27T07:07:06.255Z,29.70
2018-05-27T07:09:40.339Z,30.00
2018-05-27T07:12:13.087Z,30.10
2018-05-27T07:14:46.662Z,30.30
2018-05-27T07:17:19.517Z,30.30
2018-05-27T07:19:53.430Z,30.00
2018-05-27T07:22:26.094Z,29.90
2018-05-27T07:24:58.426Z,29.90
2018-05-27T07:27:30.794Z,29.90
2018-05-27T07:30:04.031Z,30.20
2018-05-27T07:32:37.421Z,30.30
2018-05-27T07:35:10.170Z,30.30
2018-05-27T07:37:42.815Z,30.40
2018-05-27T07:40:16.895Z,30.10
2018-05-27T07:42:49.541Z,30.10
2018-05-27T07:45:21.925Z,29.90
2018-05-27T07:47:55.410Z,29.60
2018-05-27T07:50:28.354Z,29.20
2018-05-27T07:53:01.679Z,28.80
2018-05-27T07:55:35.846Z,28.10
2018-05-27T07:58:08.598Z,28.10
2018-05-27T08:00:41.879Z,27.90
2018-05-27T08:03:14.262Z,27.80
2018-05-27T08:05:46.851Z,27.80
2018-05-27T08:08:19.338Z,27.80
2018-05-27T08:10:52.833Z,27.80
2018-05-27T08:13:25.464Z,27.80
2018-05-27T08:15:57.839Z,27.80
2018-05-27T08:18:30.714Z,28.00
2018-05-27T08:21:04.718Z,28.20
2018-05-27T08:23:38.622Z,28.20
2018-05-27T08:26:12.718Z,28.10
2018-05-27T08:28:46.347Z,27.90
2018-05-27T08:31:18.999Z,27.90
2018-05-27T08:33:51.749Z,27.60
2018-05-27T08:36:24.927Z,27.50
2018-05-27T08:38:57.395Z,27.30
2018-05-27T08:41:30.026Z,27.00
2018-05-27T08:44:03.433Z,26.90
2018-05-27T08:46:36.895Z,26.70
2018-05-27T08:49:11.124Z,26.60
2018-05-27T08:51:43.700Z,26.60
2018-05-27T08:54:16.437Z,26.50
2018-05-27T08:56:49.683Z,26.60
2018-05-27T08:59:22.432Z,26.60
2018-05-27T09:01:55.540Z,26.70
2018-05-27T09:04:29.726Z,27.00
2018-05-27T09:07:02.283Z,27.10
2018-05-27T09:09:34.728Z,27.50
2018-05-27T09:12:07.470Z,27.90
2018-05-27T09:14:40.638Z,28.40
2018-05-27T09:17:14.607Z,29.10
2018-05-27T09:19:48.075Z,29.50
2018-05-27T09:22:20.639Z,29.50
2018-05-27T09:24:54.047Z,30.30
2018-05-27T09:27:26.833Z,30.30
2018-05-27T09:30:00.545Z,30.50
2018-05-27T09:32:33.787Z,30.80
2018-05-27T09:35:07.065Z,31.10
2018-05-27T09:37:39.874Z,31.10
2018-05-27T09:40:13.296Z,30.70
2018-05-27T09:42:46.357Z,30.30
2018-05-27T09:45:19.337Z,30.30
2018-05-27T09:47:52.546Z,29.80
2018-05-27T09:50:26.502Z,29.00
2018-05-27T09:53:04.529Z,29.00
2018-05-27T09:55:37.678Z,28.90
2018-05-27T09:58:11.621Z,28.60
2018-05-27T10:00:44.321Z,28.50
2018-05-27T10:03:17.611Z,28.40
2018-05-27T10:05:50.955Z,28.10
2018-05-27T10:08:23.378Z,28.00
2018-05-27T10:10:55.811Z,28.20
2018-05-27T10:13:29.175Z,28.40
2018-05-27T10:16:02.707Z,28.60
2018-05-27T10:18:36.732Z,29.10
2018-05-27T10:21:09.454Z,29.10
2018-05-27T10:23:41.900Z,29.20
2018-05-27T10:26:14.274Z,29.30
2018-05-27T10:28:46.598Z,29.40
2018-05-27T10:31:19.157Z,29.40
2018-05-27T10:33:52.505Z,29.40
2018-05-27T10:36:25.993Z,29.30
2018-05-27T10:38:59.141Z,28.90
2018-05-27T10:41:32.164Z,28.80
2018-05-27T10:44:06.080Z,28.70
2018-05-27T10:46:40.000Z,28.80
2018-05-27T10:49:13.406Z,28.70
2018-05-27T10:51:46.282Z,28.90
2018-05-27T10:54:19.473Z,28.90
2018-05-27T10:56:52.263Z,28.80
2018-05-27T10:59:26.292Z,28.50
2018-05-27T11:01:59.032Z,28.50
2018-05-27T11:04:33.347Z,28.10
2018-05-27T11:07:06.892Z,28.00
2018-05-27T11:09:40.747Z,27.60
2018-05-27T11:12:13.393Z,27.60
2018-05-27T11:14:45.830Z,27.60
2018-05-27T11:17:18.519Z,27.50
2018-05-27T11:19:52.305Z,27.40
2018-05-27T11:22:24.956Z,27.40
2018-05-27T11:24:57.518Z,27.40
2018-05-27T11:27:30.314Z,27.40
2018-05-27T11:30:03.366Z,27.50
2018-05-27T11:32:37.425Z,27.40
2018-05-27T11:35:10.293Z,27.40
2018-05-27T11:37:42.936Z,27.40
2018-05-27T11:40:16.224Z,27.30
2018-05-27T11:42:48.792Z,27.20
2018-05-27T11:45:21.213Z,27.10
2018-05-27T11:47:53.935Z,27.00
2018-05-27T11:50:27.132Z,27.00
2018-05-27T11:53:00.657Z,26.90
2018-05-27T11:55:33.995Z,26.90
2018-05-27T11:58:06.682Z,26.90
2018-05-27T12:00:39.152Z,26.90
2018-05-27T12:03:11.886Z,26.80
2018-05-27T12:05:45.202Z,26.80
2018-05-27T12:08:17.597Z,26.80
2018-05-27T12:10:50.867Z,26.80
2018-05-27T12:13:23.505Z,26.80
2018-05-27T12:15:56.007Z,26.80
2018-05-27T12:18:28.694Z,26.70
2018-05-27T12:21:01.864Z,26.70
2018-05-27T12:23:35.644Z,26.70
2018-05-27T12:26:09.486Z,26.50
2018-05-27T12:28:42.186Z,26.50
2018-05-27T12:31:14.679Z,26.50
2018-05-27T12:33:47.285Z,26.40
2018-05-27T12:36:21.306Z,26.40
2018-05-27T12:38:54.340Z,26.40
2018-05-27T12:41:27.435Z,26.40
2018-05-27T12:43:59.891Z,26.40
2018-05-27T12:46:34.152Z,26.40
2018-05-27T12:49:06.594Z,26.50
2018-05-27T12:51:38.978Z,26.50
2018-05-27T12:54:11.368Z,26.40
2018-05-27T12:56:43.894Z,26.50
2018-05-27T12:59:16.607Z,26.50
2018-05-27T13:01:50.720Z,26.60
2018-05-27T13:04:23.692Z,26.50
2018-05-27T13:06:57.024Z,26.60
2018-05-27T13:09:29.813Z,26.60
2018-05-27T13:12:02.215Z,26.60
2018-05-27T13:14:35.058Z,26.50
2018-05-27T13:17:08.274Z,26.50
2018-05-27T13:19:40.918Z,26.40
2018-05-27T13:22:14.184Z,26.40
2018-05-27T13:24:47.710Z,26.50
2018-05-27T13:27:20.731Z,26.50
2018-05-27T13:29:54.410Z,26.50
2018-05-27T13:32:28.331Z,26.50
2018-05-27T13:35:01.221Z,26.50
2018-05-27T13:37:35.208Z,26.40
2018-05-27T13:40:08.088Z,26.50
2018-05-27T13:42:41.388Z,26.40
2018-05-27T13:45:15.189Z,26.40
2018-05-27T13:47:47.561Z,26.40
2018-05-27T13:50:20.874Z,26.40
2018-05-27T13:52:53.470Z,26.40
2018-05-27T13:55:26.157Z,26.50
2018-05-27T13:58:00.187Z,26.50
2018-05-27T14:00:32.873Z,26.50
2018-05-27T14:03:06.251Z,26.50
2018-05-27T14:05:38.873Z,26.60
2018-05-27T14:08:12.349Z,26.50
2018-05-27T14:10:46.684Z,26.50
2018-05-27T14:13:19.876Z,26.50
2018-05-27T14:15:52.516Z,26.60
2018-05-27T14:18:25.177Z,26.60
2018-05-27T14:20:58.108Z,26.60
2018-05-27T14:23:30.695Z,26.60
2018-05-27T14:26:04.264Z,26.60
2018-05-27T14:28:36.864Z,26.60
2018-05-27T14:31:10.355Z,26.60
2018-05-27T14:33:43.406Z,26.50
2018-05-27T14:36:16.926Z,26.60
2018-05-27T14:38:50.007Z,26.60
2018-05-27T14:41:23.219Z,26.60
2018-05-27T14:43:56.451Z,26.70
2018-05-27T14:46:29.686Z,26.70
2018-05-27T14:49:03.017Z,26.80
2018-05-27T14:51:36.350Z,26.80
2018-05-27T14:54:09.637Z,26.90
2018-05-27T14:56:43.170Z,26.90
2018-05-27T14:59:16.403Z,26.90
2018-05-27T15:01:49.029Z,26.90
2018-05-27T15:04:22.143Z,26.90
2018-05-27T15:06:54.693Z,27.00
2018-05-27T15:09:28.087Z,27.00
2018-05-27T15:12:00.735Z,27.00
2018-05-27T15:14:34.028Z,26.90
2018-05-27T15:17:07.329Z,26.90
2018-05-27T15:19:40.449Z,26.80
2018-05-27T15:22:14.723Z,26.70
2018-05-27T15:24:47.199Z,26.80
2018-05-27T15:27:19.746Z,26.70
2018-05-27T15:29:52.293Z,26.70
2018-05-27T15:32:25.974Z,26.60
2018-05-27T15:34:58.439Z,26.60
2018-05-27T15:37:31.146Z,26.60
2018-05-27T15:40:04.307Z,26.60
2018-05-27T15:42:36.790Z,26.60
2018-05-27T15:45:09.251Z,26.60
2018-05-27T15:47:41.833Z,26.60
2018-05-27T15:50:15.938Z,26.50
2018-05-27T15:52:48.580Z,26.50
2018-05-27T15:55:20.955Z,26.50
2018-05-27T15:57:53.481Z,26.50
2018-05-27T16:00:26.011Z,26.50
2018-05-27T16:02:58.798Z,26.50
2018-05-27T16:05:32.823Z,26.50
2018-05-27T16:08:05.370Z,26.40
2018-05-27T16:10:38.831Z,26.40
2018-05-27T16:13:11.479Z,26.40
2018-05-27T16:15:43.984Z,26.40
2018-05-27T16:18:16.638Z,26.30
2018-05-27T16:20:49.987Z,26.30
2018-05-27T16:23:22.545Z,26.30
2018-05-27T16:25:56.254Z,26.20
2018-05-27T16:28:29.492Z,26.20
2018-05-27T16:31:01.941Z,26.20
2018-05-27T16:33:34.558Z,26.20
2018-05-27T16:36:08.620Z,26.20
2018-05-27T16:38:41.595Z,26.10
2018-05-27T16:41:13.984Z,26.20
2018-05-27T16:43:46.397Z,26.10
2018-05-27T16:46:18.940Z,26.10
2018-05-27T16:48:51.532Z,26.10
2018-05-27T16:51:24.090Z,26.10
2018-05-27T16:53:57.495Z,26.10
2018-05-27T16:56:29.895Z,26.10
2018-05-27T16:59:02.748Z,26.10
2018-05-27T17:01:35.859Z,26.10
2018-05-27T17:04:10.226Z,26.10
2018-05-27T17:06:43.431Z,26.00
2018-05-27T17:09:16.292Z,26.00
2018-05-27T17:11:49.390Z,26.00
2018-05-27T17:14:21.948Z,26.00
2018-05-27T17:16:55.842Z,25.90
2018-05-27T17:19:28.524Z,25.90
2018-05-27T17:22:00.981Z,25.90
2018-05-27T17:24:33.613Z,25.80
2018-05-27T17:27:07.598Z,25.70
2018-05-27T17:29:41.155Z,25.60
2018-05-27T17:32:14.618Z,25.60
2018-05-27T17:34:48.105Z,25.60
2018-05-27T17:37:21.340Z,25.50
2018-05-27T17:39:53.716Z,25.50
2018-05-27T17:42:26.312Z,25.50
2018-05-27T17:44:59.081Z,25.40
2018-05-27T17:47:31.672Z,25.30
2018-05-27T17:50:04.914Z,25.20
2018-05-27T17:52:38.269Z,25.20
2018-05-27T17:55:11.147Z,25.20
2018-05-27T17:57:44.293Z,25.20
2018-05-27T18:00:17.475Z,25.20
2018-05-27T18:02:51.463Z,25.10
2018-05-27T18:05:24.231Z,25.10
2018-05-27T18:07:56.775Z,25.00
2018-05-27T18:10:29.292Z,24.90
2018-05-27T18:13:01.671Z,24.80
2018-05-27T18:15:34.081Z,24.80
2018-05-27T18:18:07.522Z,24.70
2018-05-27T18:20:40.863Z,24.70
2018-05-27T18:23:14.210Z,24.60
2018-05-27T18:25:47.049Z,24.60
2018-05-27T18:28:20.267Z,24.60
2018-05-27T18:30:54.366Z,24.50
2018-05-27T18:33:26.929Z,24.40
2018-05-27T18:36:01.492Z,24.40
2018-05-27T18:38:34.628Z,24.30
2018-05-27T18:41:07.968Z,24.20
2018-05-27T18:43:41.387Z,24.10
2018-05-27T18:46:14.943Z,23.90
2018-05-27T18:48:48.103Z,23.80
2018-05-27T18:51:21.433Z,23.70
2018-05-27T18:53:54.781Z,23.60
2018-05-27T18:56:29.356Z,23.40
2018-05-27T18:59:02.227Z,23.30
2018-05-27T19:01:36.260Z,23.10
2018-05-27T19:04:09.396Z,23.00
2018-05-27T19:06:43.185Z,22.80
2018-05-27T19:09:16.107Z,22.70
2018-05-27T19:11:48.586Z,22.70
2018-05-27T19:14:21.533Z,22.60
2018-05-27T19:16:54.721Z,22.50
2018-05-27T19:19:27.854Z,22.30
2018-05-27T19:22:01.887Z,22.10
2018-05-27T19:24:34.540Z,22.10
2018-05-27T19:27:07.971Z,22.00
2018-05-27T19:29:41.213Z,21.90
2018-05-27T19:32:14.537Z,21.80
2018-05-27T19:34:48.610Z,21.60
2018-05-27T19:37:23.654Z,21.50
2018-05-27T19:39:56.669Z,21.40
2018-05-27T19:42:29.874Z,21.30
2018-05-27T19:45:03.169Z,21.30
2018-05-27T19:47:35.651Z,21.10
2018-05-27T19:50:08.138Z,21.10
2018-05-27T19:52:42.174Z,20.90
2018-05-27T19:55:15.014Z,20.90
2018-05-27T19:57:48.096Z,20.90
2018-05-27T20:00:22.147Z,20.70
2018-05-27T20:02:55.002Z,20.70
2018-05-27T20:05:28.388Z,20.70
2018-05-27T20:08:01.440Z,20.60
2018-05-27T20:10:34.878Z,20.50
2018-05-27T20:13:08.138Z,20.50
2018-05-27T20:15:42.127Z,20.40
2018-05-27T20:18:15.472Z,20.30
2018-05-27T20:20:47.969Z,20.30
2018-05-27T20:23:21.390Z,20.30
2018-05-27T20:25:54.643Z,20.20
2018-05-27T20:28:27.981Z,20.10
2018-05-27T20:31:01.384Z,20.00
2018-05-27T20:33:34.838Z,20.00
2018-05-27T20:36:08.027Z,19.90
2018-05-27T20:38:41.447Z,19.80
2018-05-27T20:41:14.727Z,19.80
2018-05-27T20:43:48.480Z,19.70
2018-05-27T20:46:21.564Z,19.70
2018-05-27T20:48:55.678Z,19.60
2018-05-27T20:51:28.276Z,19.60
2018-05-27T20:54:00.650Z,19.50
2018-05-27T20:56:32.987Z,19.50
2018-05-27T20:59:06.305Z,19.40
2018-05-27T21:01:39.569Z,19.40
2018-05-27T21:04:13.726Z,19.30
2018-05-27T21:06:46.313Z,19.20
2018-05-27T21:09:18.869Z,19.30
2018-05-27T21:11:52.090Z,19.20
2018-05-27T21:14:25.458Z,19.20
2018-05-27T21:16:58.777Z,19.10
2018-05-27T21:19:32.198Z,19.00
2018-05-27T21:22:05.479Z,19.00
2018-05-27T21:24:39.829Z,18.90
2018-05-27T21:27:13.099Z,18.90
2018-05-27T21:29:45.525Z,18.80
2018-05-27T21:32:18.745Z,18.80
2018-05-27T21:34:51.249Z,18.70
2018-05-27T21:37:25.153Z,18.70
2018-05-27T21:39:57.961Z,18.70
2018-05-27T21:42:31.978Z,18.60
2018-05-27T21:45:04.823Z,18.60
2018-05-27T21:47:37.932Z,18.60
2018-05-27T21:50:11.111Z,18.60
2018-05-27T21:52:43.557Z,18.50
2018-05-27T21:55:17.052Z,18.60
2018-05-27T21:57:50.910Z,18.50
2018-05-27T22:00:23.741Z,18.50
2018-05-27T22:02:56.776Z,18.50
2018-05-27T22:05:30.958Z,18.40
2018-05-27T22:08:03.365Z,18.40
2018-05-27T22:10:36.635Z,18.40
2018-05-27T22:13:09.906Z,18.40
2018-05-27T22:15:43.423Z,18.30
2018-05-27T22:18:16.546Z,18.30
2018-05-27T22:20:49.096Z,18.30
2018-05-27T22:23:22.407Z,18.20
2018-05-27T22:25:55.907Z,18.20
2018-05-27T22:28:29.240Z,18.20
2018-05-27T22:31:01.711Z,18.20
2018-05-27T22:33:35.872Z,18.20
2018-05-27T22:36:08.659Z,18.30
2018-05-27T22:38:41.875Z,18.20
2018-05-27T22:41:14.268Z,18.20
2018-05-27T22:43:46.707Z,18.20
2018-05-27T22:46:20.800Z,18.10
2018-05-27T22:48:53.354Z,18.10
2018-05-27T22:51:26.658Z,18.10
2018-05-27T22:53:59.834Z,18.10
2018-05-27T22:56:33.086Z,18.10
2018-05-27T22:59:05.453Z,18.10
2018-05-27T23:01:38.781Z,18.00
2018-05-27T23:04:11.940Z,18.00
2018-05-27T23:06:44.457Z,18.00
2018-05-27T23:09:17.677Z,17.90
2018-05-27T23:11:51.152Z,17.90
2018-05-27T23:14:24.266Z,17.90
2018-05-27T23:16:57.782Z,17.80
2018-05-27T23:19:30.905Z,17.80
2018-05-27T23:22:04.295Z,17.70
2018-05-27T23:24:37.643Z,17.70
2018-05-27T23:27:10.080Z,17.70
2018-05-27T23:29:43.344Z,17.60
2018-05-27T23:32:17.453Z,17.60
2018-05-27T23:34:49.915Z,17.60
2018-05-27T23:37:23.348Z,17.50
2018-05-27T23:39:56.674Z,17.50
2018-05-27T23:42:29.810Z,17.40
2018-05-27T23:45:02.457Z,17.40
2018-05-27T23:47:36.197Z,17.40
2018-05-27T23:50:09.521Z,17.30
2018-05-27T23:52:43.094Z,17.30
2018-05-27T23:55:16.870Z,17.30
2018-05-27T23:57:50.209Z,17.20
